createdAt,value
2022-12-31T00:00:12.062Z,5.31
2022-12-31T00:02:38.825Z,5.31
2022-12-31T00:05:07.607Z,5.30
2022-12-31T00:10:01.746Z,5.33
2022-12-31T00:12:28.419Z,5.33
2022-12-31T00:14:55.060Z,5.37
2022-12-31T00:17:21.663Z,5.33
2022-12-31T00:19:48.228Z,5.35
2022-12-31T00:22:14.993Z,5.33
2022-12-31T00:24:41.602Z,5.32
2022-12-31T00:27:08.195Z,5.30
2022-12-31T00:29:34.821Z,5.32
2022-12-31T00:32:01.407Z,5.30
2022-12-31T00:34:28.026Z,5.33
2022-12-31T00:36:54.653Z,5.32
2022-12-31T00:39:21.279Z,5.36
2022-12-31T00:41:47.956Z,5.37
2022-12-31T00:44:14.834Z,5.40
2022-12-31T00:49:07.592Z,5.41
2022-12-31T00:51:34.188Z,5.40
2022-12-31T00:54:01.464Z,5.42
2022-12-31T00:56:30.661Z,5.39
2022-12-31T00:58:58.679Z,5.47
2022-12-31T01:01:31.512Z,5.47
2022-12-31T01:04:02.927Z,5.47
2022-12-31T01:06:30.223Z,5.47
2022-12-31T01:08:56.900Z,5.46
2022-12-31T01:11:24.755Z,5.44
2022-12-31T01:13:55.537Z,5.48
2022-12-31T01:16:25.216Z,5.47
2022-12-31T01:18:52.521Z,5.48
2022-12-31T01:21:20.580Z,5.47
2022-12-31T01:23:48.012Z,5.43
2022-12-31T01:26:17.168Z,5.41
2022-12-31T01:28:43.883Z,5.34
2022-12-31T01:31:14.110Z,5.30
2022-12-31T01:33:41.524Z,5.21
2022-12-31T01:36:12.327Z,5.18
2022-12-31T01:38:39.698Z,5.09
2022-12-31T01:41:06.438Z,4.98
2022-12-31T01:44:11.520Z,4.89
2022-12-31T01:46:48.513Z,4.81
2022-12-31T01:49:26.243Z,4.71
2022-12-31T01:52:04.665Z,4.59
2022-12-31T01:54:37.313Z,4.47
2022-12-31T01:57:05.337Z,4.41
2022-12-31T01:59:33.692Z,4.32
2022-12-31T02:02:01.924Z,4.24
2022-12-31T02:04:29.591Z,4.19
2022-12-31T02:07:02.078Z,4.17
2022-12-31T02:09:30.480Z,4.12
2022-12-31T02:11:57.080Z,4.04
2022-12-31T02:14:31.146Z,3.97
2022-12-31T02:17:03.664Z,3.92
2022-12-31T02:20:02.795Z,3.89
2022-12-31T02:22:32.240Z,3.88
2022-12-31T02:25:22.127Z,3.85
2022-12-31T02:28:19.933Z,3.87
2022-12-31T02:30:51.928Z,3.81
2022-12-31T02:33:30.976Z,3.83
2022-12-31T02:36:06.953Z,3.80
2022-12-31T02:38:39.222Z,3.76
2022-12-31T02:41:05.853Z,3.74
2022-12-31T02:43:32.477Z,3.70
2022-12-31T02:46:15.368Z,3.68
2022-12-31T02:49:00.213Z,3.67
2022-12-31T02:51:41.264Z,3.65
2022-12-31T02:54:07.861Z,3.59
2022-12-31T02:56:56.029Z,3.55
2022-12-31T02:59:50.451Z,3.48
2022-12-31T03:02:21.591Z,3.44
2022-12-31T03:04:58.498Z,3.43
2022-12-31T03:07:28.337Z,3.37
2022-12-31T03:09:55.436Z,3.35
2022-12-31T03:12:47.295Z,3.33
2022-12-31T03:15:23.179Z,3.28
2022-12-31T03:18:10.260Z,3.21
2022-12-31T03:21:00.502Z,3.18
2022-12-31T03:23:28.721Z,3.11
2022-12-31T03:25:56.663Z,3.09
2022-12-31T03:28:26.177Z,3.09
2022-12-31T03:30:56.114Z,3.06
2022-12-31T03:33:23.455Z,3.08
2022-12-31T03:35:51.626Z,3.06
2022-12-31T03:38:19.199Z,3.02
2022-12-31T03:40:48.894Z,3.05
2022-12-31T03:43:15.679Z,3.04
2022-12-31T03:45:42.581Z,2.99
2022-12-31T03:48:10.061Z,2.97
2022-12-31T03:50:36.893Z,2.94
2022-12-31T03:53:03.595Z,2.85
2022-12-31T03:55:30.238Z,2.84
2022-12-31T03:57:57.221Z,2.83
2022-12-31T04:00:23.972Z,2.76
2022-12-31T04:02:50.993Z,2.76
2022-12-31T04:05:18.908Z,2.72
2022-12-31T04:07:46.248Z,2.66
2022-12-31T04:10:15.336Z,2.66
2022-12-31T04:12:42.551Z,2.63
2022-12-31T04:15:18.276Z,2.62
2022-12-31T04:17:45.371Z,2.53
2022-12-31T04:20:12.368Z,2.46
2022-12-31T04:22:39.107Z,2.47
2022-12-31T04:25:11.315Z,2.43
2022-12-31T04:27:43.960Z,2.39
2022-12-31T04:30:12.687Z,2.39
2022-12-31T04:32:39.570Z,2.30
2022-12-31T04:35:07.020Z,2.28
2022-12-31T04:37:33.805Z,2.27
2022-12-31T04:40:05.446Z,2.23
2022-12-31T04:42:33.331Z,2.21
2022-12-31T04:44:59.970Z,2.24
2022-12-31T04:47:26.619Z,2.25
2022-12-31T04:49:53.380Z,2.22
2022-12-31T04:52:19.973Z,2.22
2022-12-31T04:54:46.608Z,2.20
2022-12-31T04:57:13.405Z,2.20
2022-12-31T04:59:40.135Z,2.18
2022-12-31T05:02:07.030Z,2.11
2022-12-31T05:04:34.057Z,2.15
2022-12-31T05:07:00.863Z,2.21
2022-12-31T05:09:28.463Z,2.22
2022-12-31T05:11:55.375Z,2.23
2022-12-31T05:14:22.480Z,2.20
2022-12-31T05:16:49.204Z,2.22
2022-12-31T05:19:16.189Z,2.20
2022-12-31T05:21:42.966Z,2.18
2022-12-31T05:24:09.585Z,2.21
2022-12-31T05:26:36.271Z,2.20
2022-12-31T05:29:03.188Z,2.27
2022-12-31T05:31:29.930Z,2.30
2022-12-31T05:33:56.892Z,2.34
2022-12-31T05:36:23.591Z,2.35
2022-12-31T05:38:50.202Z,2.36
2022-12-31T05:41:17.163Z,2.37
2022-12-31T05:43:43.790Z,2.41
2022-12-31T05:46:10.527Z,2.41
2022-12-31T05:48:37.464Z,2.39
2022-12-31T05:51:04.281Z,2.36
2022-12-31T05:53:31.039Z,2.37
2022-12-31T05:55:57.771Z,2.38
2022-12-31T05:58:24.448Z,2.38
2022-12-31T06:00:52.244Z,2.38
2022-12-31T06:03:19.032Z,2.39
2022-12-31T06:05:45.892Z,2.41
2022-12-31T06:08:12.719Z,2.44
2022-12-31T06:10:40.411Z,2.43
2022-12-31T06:13:07.474Z,2.44
2022-12-31T06:15:38.011Z,2.48
2022-12-31T06:18:05.027Z,2.50
2022-12-31T06:20:31.612Z,2.49
2022-12-31T06:22:58.366Z,2.51
2022-12-31T06:25:25.155Z,2.52
2022-12-31T06:27:52.152Z,2.54
2022-12-31T06:30:19.025Z,2.55
2022-12-31T06:32:45.701Z,2.55
2022-12-31T06:35:13.131Z,2.55
2022-12-31T06:37:39.885Z,2.55
2022-12-31T06:40:10.025Z,2.64
2022-12-31T06:42:36.653Z,2.68
2022-12-31T06:45:03.444Z,2.73
2022-12-31T06:47:30.125Z,2.76
2022-12-31T06:49:56.776Z,2.81
2022-12-31T06:52:23.443Z,2.85
2022-12-31T06:54:50.979Z,2.87
2022-12-31T06:57:17.863Z,2.91
2022-12-31T06:59:45.088Z,2.88
2022-12-31T07:02:27.341Z,2.97
2022-12-31T07:05:16.898Z,2.93
2022-12-31T07:08:01.441Z,3.02
2022-12-31T07:10:48.243Z,3.00
2022-12-31T07:13:38.044Z,3.12
2022-12-31T07:16:33.418Z,3.17
2022-12-31T07:19:03.298Z,3.21
2022-12-31T07:21:38.859Z,3.24
2022-12-31T07:24:09.788Z,3.27
2022-12-31T07:27:07.457Z,3.32
2022-12-31T07:29:43.163Z,3.34
2022-12-31T07:32:35.063Z,3.36
2022-12-31T07:35:16.261Z,3.34
2022-12-31T08:21:08.689Z,3.91
2022-12-31T08:24:00.823Z,4.16
2022-12-31T08:26:45.856Z,4.27
2022-12-31T08:29:39.137Z,4.43
2022-12-31T08:32:17.695Z,4.54
2022-12-31T08:35:13.541Z,4.65
2022-12-31T08:37:43.973Z,4.77
2022-12-31T08:40:22.420Z,4.88
2022-12-31T08:43:19.283Z,4.96
2022-12-31T08:45:51.137Z,5.03
2022-12-31T08:48:28.903Z,5.09
2022-12-31T08:50:56.026Z,5.15
2022-12-31T08:53:23.280Z,5.26
2022-12-31T08:55:58.101Z,5.36
2022-12-31T08:58:36.680Z,5.48
2022-12-31T09:01:06.456Z,5.56
2022-12-31T09:03:42.271Z,5.69
2022-12-31T09:06:20.404Z,5.78
2022-12-31T09:08:58.719Z,5.85
2022-12-31T09:11:54.691Z,5.94
2022-12-31T09:14:39.763Z,5.99
2022-12-31T09:17:15.272Z,6.03
2022-12-31T09:19:41.981Z,6.01
2022-12-31T09:22:11.350Z,6.13
2022-12-31T09:24:38.581Z,6.19
2022-12-31T09:27:27.796Z,6.27
2022-12-31T09:30:14.176Z,6.37
2022-12-31T09:32:58.574Z,6.50
2022-12-31T09:35:57.749Z,6.62
2022-12-31T09:38:54.935Z,6.81
2022-12-31T09:41:39.915Z,6.98
2022-12-31T09:44:42.010Z,7.16
2022-12-31T09:47:55.986Z,7.35
2022-12-31T09:50:49.446Z,7.56
2022-12-31T09:53:26.448Z,7.72
2022-12-31T09:55:57.767Z,7.89
2022-12-31T09:58:42.373Z,8.11
2022-12-31T10:01:15.466Z,8.27
2022-12-31T10:04:04.912Z,8.39
2022-12-31T10:06:57.935Z,8.65
2022-12-31T10:09:43.179Z,8.81
2022-12-31T10:12:31.127Z,8.97
2022-12-31T10:15:35.162Z,9.14
2022-12-31T10:18:46.939Z,9.31
2022-12-31T10:21:32.273Z,9.42
2022-12-31T10:24:36.605Z,9.55
2022-12-31T10:27:46.471Z,9.62
2022-12-31T10:30:18.327Z,9.65
2022-12-31T10:33:16.501Z,9.77
2022-12-31T10:35:54.132Z,9.79
2022-12-31T10:38:43.740Z,9.87
2022-12-31T10:41:19.365Z,9.90
2022-12-31T10:44:24.536Z,9.93
2022-12-31T10:47:00.273Z,9.95
2022-12-31T10:49:32.772Z,9.98
2022-12-31T10:52:46.269Z,9.99
2022-12-31T10:55:44.051Z,10.02
2022-12-31T10:58:22.492Z,10.04
2022-12-31T11:01:14.134Z,10.06
2022-12-31T11:03:59.268Z,10.08
2022-12-31T11:07:13.470Z,10.10
2022-12-31T11:10:01.313Z,10.13
2022-12-31T11:12:53.819Z,10.16
2022-12-31T11:15:29.593Z,10.19
2022-12-31T11:17:59.502Z,10.20
2022-12-31T11:20:38.150Z,10.23
2022-12-31T11:23:21.906Z,10.25
2022-12-31T11:26:07.605Z,10.31
2022-12-31T11:28:55.659Z,10.34
2022-12-31T11:32:04.762Z,10.38
2022-12-31T11:35:04.919Z,10.37
2022-12-31T11:37:51.814Z,10.44
2022-12-31T11:40:57.429Z,10.38
2022-12-31T11:43:34.631Z,10.45
2022-12-31T11:46:10.336Z,10.45
2022-12-31T11:48:48.269Z,10.44
2022-12-31T11:51:33.847Z,10.45
2022-12-31T11:54:25.224Z,10.42
2022-12-31T11:57:09.631Z,10.38
2022-12-31T11:59:36.279Z,10.39
2022-12-31T12:02:25.184Z,10.46
2022-12-31T12:04:55.170Z,10.49
2022-12-31T12:07:24.120Z,10.51
2022-12-31T12:09:54.527Z,10.59
2022-12-31T12:12:21.165Z,10.61
2022-12-31T12:14:53.965Z,10.65
2022-12-31T12:17:33.320Z,10.70
2022-12-31T12:20:20.007Z,10.72
2022-12-31T12:22:52.442Z,10.71
2022-12-31T12:25:25.563Z,10.72
2022-12-31T14:21:59.496Z,9.60
2022-12-31T14:24:52.174Z,9.68
2022-12-31T14:27:34.765Z,9.66
2022-12-31T14:30:17.226Z,9.61
2022-12-31T14:32:52.091Z,9.53
2022-12-31T14:35:34.175Z,9.41
2022-12-31T14:38:15.158Z,9.31
2022-12-31T14:40:51.194Z,9.23
2022-12-31T14:43:24.158Z,9.13
2022-12-31T14:46:30.389Z,9.03
2022-12-31T14:49:40.737Z,8.95
2022-12-31T14:52:16.318Z,8.86
2022-12-31T14:54:49.148Z,8.76
2022-12-31T14:57:47.513Z,8.66
2022-12-31T15:00:34.895Z,8.54
2022-12-31T15:03:34.582Z,8.42
2022-12-31T15:06:23.912Z,8.32
2022-12-31T15:08:57.499Z,8.23
2022-12-31T15:11:35.212Z,8.15
2022-12-31T15:14:01.741Z,8.07
2022-12-31T15:16:40.225Z,7.95
2022-12-31T15:19:46.079Z,7.81
2022-12-31T15:22:51.131Z,7.71
2022-12-31T15:25:24.285Z,7.57
2022-12-31T15:27:51.452Z,7.49
2022-12-31T15:30:48.577Z,7.45
2022-12-31T15:33:33.021Z,7.38
2022-12-31T15:36:13.060Z,7.31
2022-12-31T15:38:41.993Z,7.23
2022-12-31T15:41:24.788Z,7.20
2022-12-31T15:43:57.580Z,7.14
2022-12-31T15:46:29.117Z,7.09
2022-12-31T15:49:18.285Z,7.08
2022-12-31T15:51:50.481Z,7.07
2022-12-31T15:54:45.509Z,7.08
2022-12-31T15:57:27.912Z,7.11
2022-12-31T16:00:04.561Z,7.14
2022-12-31T16:02:31.612Z,7.15
2022-12-31T16:04:58.876Z,7.14
2022-12-31T16:07:28.107Z,7.15
2022-12-31T16:09:58.607Z,7.14
2022-12-31T16:12:33.056Z,7.20
2022-12-31T16:15:01.927Z,7.23
2022-12-31T16:17:29.838Z,7.21
2022-12-31T16:19:58.490Z,7.26
2022-12-31T16:22:35.930Z,7.28
2022-12-31T16:27:54.376Z,7.33
2022-12-31T16:30:30.087Z,7.34
2022-12-31T16:33:00.790Z,7.36
2022-12-31T16:35:33.672Z,7.36
2022-12-31T16:38:18.500Z,7.37
2022-12-31T16:41:03.391Z,7.35
2022-12-31T16:43:37.063Z,7.33
2022-12-31T16:46:15.623Z,7.32
2022-12-31T16:48:51.927Z,7.27
2022-12-31T16:51:21.330Z,7.26
2022-12-31T16:53:49.343Z,7.24
2022-12-31T16:56:26.506Z,7.21
2022-12-31T16:58:59.927Z,7.17
2022-12-31T17:01:31.628Z,7.15
2022-12-31T17:04:03.716Z,7.13
2022-12-31T17:06:33.460Z,7.14
2022-12-31T17:09:23.144Z,7.16
2022-12-31T17:11:52.561Z,7.18
2022-12-31T17:14:23.240Z,7.21
2022-12-31T17:17:03.545Z,7.23
2022-12-31T17:19:41.754Z,7.26
2022-12-31T17:22:37.509Z,7.28
2022-12-31T17:25:19.362Z,7.29
2022-12-31T17:27:56.818Z,7.30
2022-12-31T17:30:29.754Z,7.31
2022-12-31T17:33:03.851Z,7.30
2022-12-31T17:35:35.711Z,7.34
2022-12-31T17:38:21.128Z,7.36
2022-12-31T17:41:06.428Z,7.38
2022-12-31T17:43:38.066Z,7.38
2022-12-31T17:46:16.706Z,7.38
2022-12-31T17:48:46.152Z,7.39
2022-12-31T17:51:12.918Z,7.38
2022-12-31T17:53:39.509Z,7.38
2022-12-31T17:56:10.358Z,7.40
2022-12-31T17:58:49.497Z,7.38
2022-12-31T18:01:19.670Z,7.40
2022-12-31T18:03:47.918Z,7.39
2022-12-31T18:06:17.101Z,7.37
2022-12-31T18:08:44.049Z,7.32
2022-12-31T18:11:26.944Z,7.29
2022-12-31T18:13:55.344Z,7.14
2022-12-31T18:16:29.017Z,7.37
2022-12-31T18:19:00.975Z,7.19
2022-12-31T18:21:36.239Z,7.30
2022-12-31T18:24:07.637Z,7.09
2022-12-31T18:26:34.826Z,7.16
2022-12-31T18:29:13.846Z,7.24
2022-12-31T18:31:42.875Z,7.29
2022-12-31T18:38:00.526Z,7.30
2022-12-31T18:40:27.685Z,7.29
2022-12-31T18:42:58.418Z,7.32
2022-12-31T18:45:27.988Z,7.32
2022-12-31T18:47:54.650Z,7.33
2022-12-31T18:50:21.237Z,7.32
2022-12-31T18:52:48.202Z,7.27
2022-12-31T18:55:39.727Z,7.33
2022-12-31T18:58:07.852Z,7.31
2022-12-31T19:00:35.438Z,7.33
2022-12-31T19:03:02.413Z,7.26
2022-12-31T19:05:31.520Z,7.32
2022-12-31T19:07:58.334Z,7.32
2022-12-31T19:10:26.656Z,7.32
2022-12-31T19:12:53.897Z,7.34
2022-12-31T19:15:26.006Z,7.37
2022-12-31T19:17:52.806Z,7.36
2022-12-31T19:20:19.682Z,7.42
2022-12-31T19:22:46.615Z,7.46
2022-12-31T19:25:39.929Z,7.48
2022-12-31T19:28:21.267Z,7.46
2022-12-31T19:30:48.037Z,7.46
2022-12-31T19:33:15.471Z,7.49
2022-12-31T19:35:43.119Z,7.50
2022-12-31T19:38:25.636Z,7.44
2022-12-31T19:40:53.785Z,7.51
2022-12-31T19:43:22.716Z,7.50
2022-12-31T19:45:51.292Z,7.50
2022-12-31T19:48:21.177Z,7.51
2022-12-31T19:50:50.533Z,7.50
2022-12-31T19:53:26.088Z,7.54
2022-12-31T19:55:53.515Z,7.55
2022-12-31T19:58:24.726Z,7.60
2022-12-31T20:00:58.213Z,7.60
2022-12-31T20:03:29.010Z,7.64
2022-12-31T20:06:08.386Z,7.65
2022-12-31T20:08:36.491Z,7.62
2022-12-31T20:11:15.700Z,7.64
2022-12-31T20:13:43.218Z,7.63
2022-12-31T20:16:13.493Z,7.62
2022-12-31T20:18:41.871Z,7.60
2022-12-31T20:21:14.655Z,7.61
2022-12-31T20:23:41.489Z,7.58
2022-12-31T20:26:08.223Z,7.58
2022-12-31T20:28:36.351Z,7.54
2022-12-31T20:31:07.711Z,7.57
2022-12-31T20:33:34.859Z,7.56
2022-12-31T20:36:03.347Z,7.56
2022-12-31T20:38:30.052Z,7.56
2022-12-31T20:41:03.694Z,7.58
2022-12-31T20:43:32.307Z,7.60
2022-12-31T20:45:59.143Z,7.61
2022-12-31T20:48:26.196Z,7.62
2022-12-31T20:50:57.652Z,7.61
2022-12-31T20:53:25.011Z,7.63
2022-12-31T20:55:51.906Z,7.58
2022-12-31T20:58:18.764Z,7.56
2022-12-31T21:00:49.564Z,7.57
2022-12-31T21:04:02.300Z,7.58
2022-12-31T21:06:07.236Z,7.60
2022-12-31T21:08:35.245Z,7.61
2022-12-31T21:11:02.637Z,7.60
2022-12-31T21:13:29.361Z,7.59
2022-12-31T21:15:56.078Z,7.60
2022-12-31T21:18:23.507Z,7.56
2022-12-31T21:20:52.768Z,7.62
2022-12-31T21:23:20.498Z,7.61
2022-12-31T21:25:50.141Z,7.66
2022-12-31T21:28:17.045Z,7.65
2022-12-31T21:30:43.923Z,7.67
2022-12-31T21:33:13.435Z,7.69
2022-12-31T21:35:45.560Z,7.64
2022-12-31T21:38:13.693Z,7.67
2022-12-31T21:40:40.537Z,7.68
2022-12-31T21:43:07.266Z,7.70
2022-12-31T21:45:34.611Z,7.70
2022-12-31T21:48:20.541Z,7.70
2022-12-31T21:50:48.676Z,7.70
2022-12-31T21:53:24.546Z,7.70
2022-12-31T21:56:08.711Z,7.70
2022-12-31T21:58:37.304Z,7.66
2022-12-31T22:01:22.571Z,7.65
2022-12-31T22:03:49.321Z,7.65
2022-12-31T22:06:22.678Z,7.65
2022-12-31T22:08:58.795Z,7.67
2022-12-31T22:11:27.207Z,7.64
2022-12-31T22:13:55.215Z,7.66
2022-12-31T22:16:22.574Z,7.61
2022-12-31T22:18:50.063Z,7.65
2022-12-31T22:21:20.411Z,7.65
2022-12-31T22:23:50.116Z,7.65
2022-12-31T22:26:18.876Z,7.63
2022-12-31T22:28:46.473Z,7.62
2022-12-31T22:31:18.573Z,7.65
2022-12-31T22:33:45.638Z,7.64
2022-12-31T22:36:15.339Z,7.62
2022-12-31T22:38:42.585Z,7.64
2022-12-31T22:41:11.080Z,7.64
2022-12-31T22:43:41.080Z,7.65
2022-12-31T22:46:10.361Z,7.64
2022-12-31T22:48:37.836Z,7.71
2022-12-31T22:51:04.920Z,7.67
2022-12-31T22:53:31.646Z,7.67
2022-12-31T22:55:58.386Z,7.69
2022-12-31T22:58:25.797Z,7.69
2022-12-31T23:00:53.621Z,7.69
2022-12-31T23:03:20.549Z,7.71
2022-12-31T23:05:51.735Z,7.72
2022-12-31T23:08:23.089Z,7.72
2022-12-31T23:11:05.480Z,7.73
2022-12-31T23:13:56.848Z,7.73
2022-12-31T23:16:43.450Z,7.71
2022-12-31T23:19:29.305Z,7.64
2022-12-31T23:22:14.692Z,7.63
2022-12-31T23:24:41.398Z,7.54
2022-12-31T23:27:09.340Z,7.56
2022-12-31T23:29:46.080Z,7.47
2022-12-31T23:32:16.333Z,7.40
2022-12-31T23:34:44.283Z,7.30
2022-12-31T23:37:12.085Z,7.29
2022-12-31T23:39:39.171Z,7.26
2022-12-31T23:42:06.085Z,7.23
2022-12-31T23:44:33.116Z,7.14
2022-12-31T23:46:59.891Z,7.04
2022-12-31T23:49:26.625Z,7.01
2022-12-31T23:51:53.313Z,6.92
2022-12-31T23:54:19.943Z,6.86
2022-12-31T23:56:46.816Z,6.80
2022-12-31T23:59:13.507Z,6.76
